sensor_id;sensor_type;location;lat;lon;timestamp;pressure;altitude;pressure_sealevel;temperature;humidity
4398;BME280;2213;49.720;7.296;2024-02-15T00:00:46;98377.03;;;10.41;100.00
4398;BME280;2213;49.720;7.296;2024-02-15T00:03:16;98370.47;;;10.45;100.00
4398;BME280;2213;49.720;7.296;2024-02-15T00:05:46;98374.56;;;10.48;100.00
4398;BME280;2213;49.720;7.296;2024-02-15T00:08:14;98371.66;;;10.43;100.00
4398;BME280;2213;49.720;7.296;2024-02-15T00:10:43;98372.63;;;10.42;100.00
4398;BME280;2213;49.720;7.296;2024-02-15T00:13:13;98379.66;;;10.41;100.00
4398;BME280;2213;49.720;7.296;2024-02-15T00:15:42;98378.06;;;10.40;100.00
4398;BME280;2213;49.720;7.296;2024-02-15T00:18:10;98370.22;;;10.40;100.00
4398;BME280;2213;49.720;7.296;2024-02-15T00:20:41;98376.72;;;10.44;100.00
4398;BME280;2213;49.720;7.296;2024-02-15T00:23:11;98376.72;;;10.44;100.00
4398;BME280;2213;49.720;7.296;2024-02-15T00:25:40;98376.06;;;10.42;100.00
4398;BME280;2213;49.720;7.296;2024-02-15T00:28:11;98375.34;;;10.48;100.00
4398;BME280;2213;49.720;7.296;2024-02-15T00:30:40;98369.94;;;10.50;100.00
4398;BME280;2213;49.720;7.296;2024-02-15T00:33:09;98374.34;;;10.49;100.00
4398;BME280;2213;49.720;7.296;2024-02-15T00:35:40;98369.41;;;10.54;100.00
4398;BME280;2213;49.720;7.296;2024-02-15T00:38:09;98366.44;;;10.57;100.00
4398;BME280;2213;49.720;7.296;2024-02-15T00:40:37;98366.44;;;10.57;100.00
4398;BME280;2213;49.720;7.296;2024-02-15T00:43:07;98360.50;;;10.64;100.00
4398;BME280;2213;49.720;7.296;2024-02-15T00:45:35;98365.34;;;10.67;100.00
4398;BME280;2213;49.720;7.296;2024-02-15T00:48:04;98361.56;;;10.69;100.00
4398;BME280;2213;49.720;7.296;2024-02-15T00:50:34;98368.25;;;10.72;100.00
4398;BME280;2213;49.720;7.296;2024-02-15T00:53:04;98363.28;;;10.77;100.00
4398;BME280;2213;49.720;7.296;2024-02-15T00:55:33;98368.00;;;10.81;100.00
4398;BME280;2213;49.720;7.296;2024-02-15T00:58:01;98364.84;;;10.86;100.00
4398;BME280;2213;49.720;7.296;2024-02-15T01:00:30;98354.38;;;10.86;100.00
4398;BME280;2213;49.720;7.296;2024-02-15T01:02:58;98352.38;;;10.88;100.00
4398;BME280;2213;49.720;7.296;2024-02-15T01:05:27;98352.81;;;10.91;100.00
4398;BME280;2213;49.720;7.296;2024-02-15T01:07:56;98351.03;;;10.92;100.00
4398;BME280;2213;49.720;7.296;2024-02-15T01:10:25;98356.06;;;10.93;100.00
4398;BME280;2213;49.720;7.296;2024-02-15T01:12:54;98348.66;;;10.97;100.00
4398;BME280;2213;49.720;7.296;2024-02-15T01:15:23;98349.69;;;10.96;100.00
4398;BME280;2213;49.720;7.296;2024-02-15T01:17:51;98345.44;;;10.95;100.00
4398;BME280;2213;49.720;7.296;2024-02-15T01:20:20;98349.69;;;10.96;100.00
4398;BME280;2213;49.720;7.296;2024-02-15T01:22:48;98348.03;;;10.95;100.00
4398;BME280;2213;49.720;7.296;2024-02-15T01:25:17;98354.09;;;10.95;100.00
4398;BME280;2213;49.720;7.296;2024-02-15T01:27:46;98359.13;;;10.97;100.00
4398;BME280;2213;49.720;7.296;2024-02-15T01:30:16;98352.09;;;10.97;100.00
4398;BME280;2213;49.720;7.296;2024-02-15T01:32:44;98361.75;;;10.97;100.00
4398;BME280;2213;49.720;7.296;2024-02-15T01:35:13;98361.75;;;10.97;100.00
4398;BME280;2213;49.720;7.296;2024-02-15T01:37:41;98363.38;;;10.98;100.00
4398;BME280;2213;49.720;7.296;2024-02-15T01:40:10;98368.59;;;10.98;100.00
4398;BME280;2213;49.720;7.296;2024-02-15T01:42:40;98371.41;;;10.96;100.00
4398;BME280;2213;49.720;7.296;2024-02-15T01:45:10;98376.47;;;10.98;100.00
4398;BME280;2213;49.720;7.296;2024-02-15T01:47:39;98366.97;;;10.97;100.00
4398;BME280;2213;49.720;7.296;2024-02-15T01:50:11;98369.78;;;10.95;100.00
4398;BME280;2213;49.720;7.296;2024-02-15T01:52:43;98370.78;;;10.94;100.00
4398;BME280;2213;49.720;7.296;2024-02-15T01:55:16;98370.97;;;10.93;100.00
4398;BME280;2213;49.720;7.296;2024-02-15T01:57:46;98367.34;;;10.94;100.00
4398;BME280;2213;49.720;7.296;2024-02-15T02:00:18;98365.91;;;10.91;100.00
4398;BME280;2213;49.720;7.296;2024-02-15T02:02:47;98365.75;;;10.93;100.00
4398;BME280;2213;49.720;7.296;2024-02-15T02:05:17;98362.94;;;10.94;100.00
4398;BME280;2213;49.720;7.296;2024-02-15T02:07:45;98365.75;;;10.93;100.00
4398;BME280;2213;49.720;7.296;2024-02-15T02:10:14;98358.97;;;10.84;100.00
4398;BME280;2213;49.720;7.296;2024-02-15T02:12:42;98358.78;;;10.85;100.00
4398;BME280;2213;49.720;7.296;2024-02-15T02:15:11;98362.91;;;10.80;100.00
4398;BME280;2213;49.720;7.296;2024-02-15T02:17:41;98352.66;;;10.78;100.00
4398;BME280;2213;49.720;7.296;2024-02-15T02:20:10;98355.06;;;10.80;100.00
4398;BME280;2213;49.720;7.296;2024-02-15T02:22:41;98355.28;;;10.78;100.00
4398;BME280;2213;49.720;7.296;2024-02-15T02:25:16;98353.47;;;10.79;100.00
4398;BME280;2213;49.720;7.296;2024-02-15T02:27:46;98343.38;;;10.76;100.00
4398;BME280;2213;49.720;7.296;2024-02-15T02:30:16;98347.13;;;10.73;100.00
4398;BME280;2213;49.720;7.296;2024-02-15T02:32:46;98342.09;;;10.72;100.00
4398;BME280;2213;49.720;7.296;2024-02-15T02:35:15;98343.97;;;10.63;100.00
4398;BME280;2213;49.720;7.296;2024-02-15T02:37:44;98341.72;;;10.60;100.00
4398;BME280;2213;49.720;7.296;2024-02-15T02:40:15;98338.94;;;10.62;100.00
4398;BME280;2213;49.720;7.296;2024-02-15T02:42:48;98340.19;;;10.66;100.00
4398;BME280;2213;49.720;7.296;2024-02-15T02:45:17;98337.94;;;10.63;100.00
4398;BME280;2213;49.720;7.296;2024-02-15T02:47:47;98335.31;;;10.63;100.00
4398;BME280;2213;49.720;7.296;2024-02-15T02:50:19;98326.84;;;10.60;100.00
4398;BME280;2213;49.720;7.296;2024-02-15T02:52:48;98324.97;;;10.54;100.00
4398;BME280;2213;49.720;7.296;2024-02-15T02:55:18;98335.06;;;10.57;100.00
4398;BME280;2213;49.720;7.296;2024-02-15T02:57:48;98328.19;;;10.56;100.00
4398;BME280;2213;49.720;7.296;2024-02-15T03:00:17;98324.16;;;10.54;100.00
4398;BME280;2213;49.720;7.296;2024-02-15T03:02:47;98331.81;;;10.55;100.00
4398;BME280;2213;49.720;7.296;2024-02-15T03:05:16;98328.19;;;10.56;100.00
4398;BME280;2213;49.720;7.296;2024-02-15T03:07:48;98328.19;;;10.56;100.00
4398;BME280;2213;49.720;7.296;2024-02-15T03:10:20;98330.19;;;10.54;100.00
4398;BME280;2213;49.720;7.296;2024-02-15T03:12:49;98324.59;;;10.57;100.00
4398;BME280;2213;49.720;7.296;2024-02-15T03:15:17;98327.59;;;10.54;100.00
4398;BME280;2213;49.720;7.296;2024-02-15T03:17:47;98325.94;;;10.53;100.00
4398;BME280;2213;49.720;7.296;2024-02-15T03:20:17;98321.25;;;10.49;100.00
4398;BME280;2213;49.720;7.296;2024-02-15T03:22:54;98322.06;;;10.49;100.00
4398;BME280;2213;49.720;7.296;2024-02-15T03:25:25;98330.09;;;10.48;100.00
4398;BME280;2213;49.720;7.296;2024-02-15T03:27:57;98323.88;;;10.49;100.00
4398;BME280;2213;49.720;7.296;2024-02-15T03:30:32;98315.22;;;10.48;100.00
4398;BME280;2213;49.720;7.296;2024-02-15T03:33:04;98312.78;;;10.47;100.00
4398;BME280;2213;49.720;7.296;2024-02-15T03:35:34;98301.97;;;10.50;100.00
4398;BME280;2213;49.720;7.296;2024-02-15T03:38:03;98310.78;;;10.49;100.00
4398;BME280;2213;49.720;7.296;2024-02-15T03:40:33;98311.59;;;10.49;100.00
4398;BME280;2213;49.720;7.296;2024-02-15T03:43:01;98309.66;;;10.51;100.00
4398;BME280;2213;49.720;7.296;2024-02-15T03:45:33;98310.78;;;10.49;100.00
4398;BME280;2213;49.720;7.296;2024-02-15T03:48:02;98314.94;;;10.43;100.00
4398;BME280;2213;49.720;7.296;2024-02-15T03:50:32;98313.97;;;10.44;100.00
4398;BME280;2213;49.720;7.296;2024-02-15T03:53:01;98317.03;;;10.48;100.00
4398;BME280;2213;49.720;7.296;2024-02-15T03:55:29;98312.59;;;10.48;100.00
4398;BME280;2213;49.720;7.296;2024-02-15T03:57:59;98310.78;;;10.49;100.00
4398;BME280;2213;49.720;7.296;2024-02-15T04:00:27;98314.22;;;10.49;100.00
4398;BME280;2213;49.720;7.296;2024-02-15T04:02:56;98322.72;;;10.51;100.00
4398;BME280;2213;49.720;7.296;2024-02-15T04:05:25;98318.47;;;10.50;100.00
4398;BME280;2213;49.720;7.296;2024-02-15T04:07:53;98323.69;;;10.50;100.00
4398;BME280;2213;49.720;7.296;2024-02-15T04:10:22;98316.47;;;10.52;100.00
4398;BME280;2213;49.720;7.296;2024-02-15T04:12:50;98314.88;;;10.51;100.00
4398;BME280;2213;49.720;7.296;2024-02-15T04:15:20;98314.41;;;10.48;100.00
4398;BME280;2213;49.720;7.296;2024-02-15T04:17:49;98315.22;;;10.48;100.00
4398;BME280;2213;49.720;7.296;2024-02-15T04:20:23;98314.41;;;10.48;100.00
4398;BME280;2213;49.720;7.296;2024-02-15T04:22:52;98314.41;;;10.48;100.00
4398;BME280;2213;49.720;7.296;2024-02-15T04:25:21;98317.19;;;10.46;100.00
4398;BME280;2213;49.720;7.296;2024-02-15T04:27:55;98324.88;;;10.48;100.00
4398;BME280;2213;49.720;7.296;2024-02-15T04:30:26;98316.84;;;10.49;100.00
4398;BME280;2213;49.720;7.296;2024-02-15T04:32:54;98314.88;;;10.51;100.00
4398;BME280;2213;49.720;7.296;2024-02-15T04:35:22;98313.59;;;10.47;100.00
4398;BME280;2213;49.720;7.296;2024-02-15T04:37:51;98312.97;;;10.45;100.00
4398;BME280;2213;49.720;7.296;2024-02-15T04:40:20;98315.31;;;10.40;100.00
4398;BME280;2213;49.720;7.296;2024-02-15T04:42:48;98314.50;;;10.40;100.00
4398;BME280;2213;49.720;7.296;2024-02-15T04:45:17;98305.84;;;10.39;100.00
4398;BME280;2213;49.720;7.296;2024-02-15T04:47:49;98310.69;;;10.42;100.00
4398;BME280;2213;49.720;7.296;2024-02-15T04:50:20;98289.16;;;10.40;100.00
4398;BME280;2213;49.720;7.296;2024-02-15T04:52:48;98290.50;;;10.36;100.00
4398;BME280;2213;49.720;7.296;2024-02-15T04:55:17;98291.25;;;10.30;100.00
4398;BME280;2213;49.720;7.296;2024-02-15T04:57:45;98295.19;;;10.26;100.00
4398;BME280;2213;49.720;7.296;2024-02-15T05:00:17;98296.91;;;10.19;100.00
4398;BME280;2213;49.720;7.296;2024-02-15T05:02:50;98299.22;;;10.14;100.00
4398;BME280;2213;49.720;7.296;2024-02-15T05:07:49;98295.50;;;10.08;100.00
4398;BME280;2213;49.720;7.296;2024-02-15T05:10:17;98297.13;;;10.09;100.00
4398;BME280;2213;49.720;7.296;2024-02-15T05:12:46;98293.88;;;10.07;100.00
4398;BME280;2213;49.720;7.296;2024-02-15T05:15:16;98295.19;;;10.03;100.00
4398;BME280;2213;49.720;7.296;2024-02-15T05:17:46;98293.75;;;10.01;100.00
4398;BME280;2213;49.720;7.296;2024-02-15T05:20:17;98285.31;;;9.99;100.00
4398;BME280;2213;49.720;7.296;2024-02-15T05:22:47;98281.06;;;9.98;100.00
4398;BME280;2213;49.720;7.296;2024-02-15T05:25:18;98283.66;;;9.98;100.00
4398;BME280;2213;49.720;7.296;2024-02-15T05:27:53;98285.00;;;9.94;100.00
4398;BME280;2213;49.720;7.296;2024-02-15T05:30:24;98282.59;;;9.92;100.00
4398;BME280;2213;49.720;7.296;2024-02-15T05:32:53;98270.78;;;9.96;100.00
4398;BME280;2213;49.720;7.296;2024-02-15T05:35:24;98278.97;;;9.93;100.00
4398;BME280;2213;49.720;7.296;2024-02-15T05:37:54;98270.50;;;9.91;100.00
4398;BME280;2213;49.720;7.296;2024-02-15T05:40:23;98274.09;;;9.90;100.00
4398;BME280;2213;49.720;7.296;2024-02-15T05:42:55;98267.03;;;9.99;100.00
4398;BME280;2213;49.720;7.296;2024-02-15T05:45:30;98268.00;;;9.98;100.00
4398;BME280;2213;49.720;7.296;2024-02-15T05:48:05;98269.34;;;9.94;100.00
4398;BME280;2213;49.720;7.296;2024-02-15T05:50:41;98268.88;;;9.90;100.00
4398;BME280;2213;49.720;7.296;2024-02-15T05:53:09;98274.91;;;9.91;100.00
4398;BME280;2213;49.720;7.296;2024-02-15T05:55:38;98277.53;;;9.91;100.00
4398;BME280;2213;49.720;7.296;2024-02-15T05:58:11;98271.13;;;9.93;100.00
4398;BME280;2213;49.720;7.296;2024-02-15T06:00:41;98271.31;;;9.92;100.00
4398;BME280;2213;49.720;7.296;2024-02-15T06:03:11;98268.88;;;9.90;100.00
4398;BME280;2213;49.720;7.296;2024-02-15T06:05:41;98269.59;;;9.84;100.00
4398;BME280;2213;49.720;7.296;2024-02-15T06:08:11;98268.41;;;9.87;100.00
4398;BME280;2213;49.720;7.296;2024-02-15T06:10:40;98270.22;;;9.86;100.00
4398;BME280;2213;49.720;7.296;2024-02-15T06:13:08;98269.41;;;9.86;100.00
4398;BME280;2213;49.720;7.296;2024-02-15T06:15:37;98272.81;;;9.86;100.00
4398;BME280;2213;49.720;7.296;2024-02-15T06:18:05;98277.25;;;9.86;100.00
4398;BME280;2213;49.720;7.296;2024-02-15T06:20:37;98272.47;;;9.89;100.00
4398;BME280;2213;49.720;7.296;2024-02-15T06:23:08;98281.47;;;9.87;100.00
4398;BME280;2213;49.720;7.296;2024-02-15T06:25:37;98273.66;;;9.87;100.00
4398;BME280;2213;49.720;7.296;2024-02-15T06:28:05;98280.84;;;9.85;100.00
4398;BME280;2213;49.720;7.296;2024-02-15T06:30:46;98278.41;;;9.83;100.00
4398;BME280;2213;49.720;7.296;2024-02-15T06:33:32;98273.84;;;9.85;100.00
4398;BME280;2213;49.720;7.296;2024-02-15T06:36:18;98276.25;;;9.87;100.00
4398;BME280;2213;49.720;7.296;2024-02-15T06:39:06;98272.00;;;9.86;100.00
4398;BME280;2213;49.720;7.296;2024-02-15T06:41:51;98284.91;;;9.87;100.00
4398;BME280;2213;49.720;7.296;2024-02-15T06:44:20;98281.69;;;9.85;100.00
4398;BME280;2213;49.720;7.296;2024-02-15T06:46:51;98275.44;;;9.86;100.00
4398;BME280;2213;49.720;7.296;2024-02-15T06:49:20;98270.06;;;9.88;100.00
4398;BME280;2213;49.720;7.296;2024-02-15T06:51:49;98275.09;;;9.89;100.00
4398;BME280;2213;49.720;7.296;2024-02-15T06:54:19;98264.81;;;9.88;100.00
4398;BME280;2213;49.720;7.296;2024-02-15T06:56:47;98278.50;;;9.90;100.00
4398;BME280;2213;49.720;7.296;2024-02-15T06:59:16;98279.16;;;9.92;100.00
4398;BME280;2213;49.720;7.296;2024-02-15T07:01:45;98288.13;;;9.89;100.00
4398;BME280;2213;49.720;7.296;2024-02-15T07:04:14;98280.50;;;9.88;100.00
4398;BME280;2213;49.720;7.296;2024-02-15T07:06:42;98281.13;;;9.90;100.00
4398;BME280;2213;49.720;7.296;2024-02-15T07:09:13;98297.81;;;9.89;100.00
4398;BME280;2213;49.720;7.296;2024-02-15T07:11:46;98295.19;;;9.89;100.00
4398;BME280;2213;49.720;7.296;2024-02-15T07:14:18;98297.81;;;9.89;100.00
4398;BME280;2213;49.720;7.296;2024-02-15T07:16:48;98310.22;;;9.87;100.00
4398;BME280;2213;49.720;7.296;2024-02-15T07:19:18;98308.56;;;9.86;100.00
4398;BME280;2213;49.720;7.296;2024-02-15T07:21:47;98304.97;;;9.87;100.00
4398;BME280;2213;49.720;7.296;2024-02-15T07:24:16;98312.00;;;9.86;100.00
4398;BME280;2213;49.720;7.296;2024-02-15T07:26:47;98319.03;;;9.86;100.00
4398;BME280;2213;49.720;7.296;2024-02-15T07:29:19;98307.91;;;9.92;100.00
4398;BME280;2213;49.720;7.296;2024-02-15T07:31:50;98305.91;;;9.94;100.00
4398;BME280;2213;49.720;7.296;2024-02-15T07:34:18;98317.63;;;9.98;100.00
4398;BME280;2213;49.720;7.296;2024-02-15T07:36:47;98306.56;;;9.96;100.00
4398;BME280;2213;49.720;7.296;2024-02-15T07:39:16;98308.81;;;9.99;100.00
4398;BME280;2213;49.720;7.296;2024-02-15T07:41:52;98309.44;;;10.01;100.00
4398;BME280;2213;49.720;7.296;2024-02-15T07:44:21;98312.72;;;10.03;100.00
4398;BME280;2213;49.720;7.296;2024-02-15T07:46:50;98310.09;;;10.03;100.00
4398;BME280;2213;49.720;7.296;2024-02-15T07:49:19;98308.91;;;10.05;100.00
4398;BME280;2213;49.720;7.296;2024-02-15T07:51:49;98312.16;;;10.07;100.00
4398;BME280;2213;49.720;7.296;2024-02-15T07:54:20;98312.59;;;10.11;100.00
4398;BME280;2213;49.720;7.296;2024-02-15T07:56:49;98307.72;;;10.16;100.00
4398;BME280;2213;49.720;7.296;2024-02-15T07:59:20;98317.59;;;10.21;100.00
4398;BME280;2213;49.720;7.296;2024-02-15T08:01:49;98317.28;;;10.24;100.00
4398;BME280;2213;49.720;7.296;2024-02-15T08:04:19;98308.63;;;10.23;100.00
4398;BME280;2213;49.720;7.296;2024-02-15T08:06:48;98316.09;;;10.26;100.00
4398;BME280;2213;49.720;7.296;2024-02-15T08:09:18;98315.75;;;10.29;100.00
4398;BME280;2213;49.720;7.296;2024-02-15T08:11:49;98313.59;;;10.33;100.00
4398;BME280;2213;49.720;7.296;2024-02-15T08:14:20;98314.03;;;10.36;100.00
4398;BME280;2213;49.720;7.296;2024-02-15T08:16:48;98311.06;;;10.39;100.00
4398;BME280;2213;49.720;7.296;2024-02-15T08:19:16;98308.28;;;10.41;100.00
4398;BME280;2213;49.720;7.296;2024-02-15T08:21:47;98301.88;;;10.43;100.00
4398;BME280;2213;49.720;7.296;2024-02-15T08:24:18;98300.91;;;10.44;100.00
4398;BME280;2213;49.720;7.296;2024-02-15T08:26:46;98305.75;;;10.47;100.00
4398;BME280;2213;49.720;7.296;2024-02-15T08:29:15;98308.00;;;10.50;100.00
4398;BME280;2213;49.720;7.296;2024-02-15T08:31:45;98299.97;;;10.52;100.00
4398;BME280;2213;49.720;7.296;2024-02-15T08:34:16;98296.00;;;10.56;100.00
4398;BME280;2213;49.720;7.296;2024-02-15T08:36:45;98294.84;;;10.58;100.00
4398;BME280;2213;49.720;7.296;2024-02-15T08:39:15;98294.84;;;10.58;100.00
4398;BME280;2213;49.720;7.296;2024-02-15T08:41:44;98280.78;;;10.59;100.00
4398;BME280;2213;49.720;7.296;2024-02-15T08:44:13;98276.00;;;10.63;100.00
4398;BME280;2213;49.720;7.296;2024-02-15T08:46:44;98278.06;;;10.68;100.00
4398;BME280;2213;49.720;7.296;2024-02-15T08:49:15;98279.50;;;10.70;100.00
4398;BME280;2213;49.720;7.296;2024-02-15T08:51:44;98283.22;;;10.76;100.00
4398;BME280;2213;49.720;7.296;2024-02-15T08:54:13;98272.75;;;10.76;100.00
4398;BME280;2213;49.720;7.296;2024-02-15T08:56:41;98271.38;;;10.80;100.00
4398;BME280;2213;49.720;7.296;2024-02-15T08:59:10;98276.59;;;10.80;100.00
4398;BME280;2213;49.720;7.296;2024-02-15T09:01:39;98271.19;;;10.81;100.00
4398;BME280;2213;49.720;7.296;2024-02-15T09:04:09;98278.50;;;10.86;100.00
4398;BME280;2213;49.720;7.296;2024-02-15T09:06:37;98278.13;;;10.89;100.00
4398;BME280;2213;49.720;7.296;2024-02-15T09:09:06;98280.75;;;10.89;100.00
4398;BME280;2213;49.720;7.296;2024-02-15T09:11:34;98269.28;;;10.90;100.00
4398;BME280;2213;49.720;7.296;2024-02-15T09:14:03;98275.16;;;10.92;100.00
4398;BME280;2213;49.720;7.296;2024-02-15T09:16:31;98276.78;;;10.93;100.00
4398;BME280;2213;49.720;7.296;2024-02-15T09:19:00;98274.94;;;10.93;100.00
4398;BME280;2213;49.720;7.296;2024-02-15T09:21:31;98266.13;;;10.94;100.00
4398;BME280;2213;49.720;7.296;2024-02-15T09:24:00;98272.44;;;11.00;100.00
4398;BME280;2213;49.720;7.296;2024-02-15T09:26:29;98267.66;;;11.03;100.00
4398;BME280;2213;49.720;7.296;2024-02-15T09:28:57;98272.69;;;11.05;100.00
4398;BME280;2213;49.720;7.296;2024-02-15T09:31:26;98276.13;;;11.05;100.00
4398;BME280;2213;49.720;7.296;2024-02-15T09:33:55;98266.19;;;11.01;100.00
4398;BME280;2213;49.720;7.296;2024-02-15T09:36:25;98267.06;;;11.08;100.00
4398;BME280;2213;49.720;7.296;2024-02-15T09:38:57;98258.50;;;11.14;100.00
4398;BME280;2213;49.720;7.296;2024-02-15T09:41:26;98264.97;;;11.18;100.00
4398;BME280;2213;49.720;7.296;2024-02-15T09:43:54;98258.38;;;11.22;100.00
4398;BME280;2213;49.720;7.296;2024-02-15T09:46:23;98252.97;;;11.24;100.00
4398;BME280;2213;49.720;7.296;2024-02-15T09:48:56;98248.53;;;11.24;100.00
4398;BME280;2213;49.720;7.296;2024-02-15T09:51:27;98246.16;;;11.29;100.00
4398;BME280;2213;49.720;7.296;2024-02-15T09:54:00;98253.47;;;11.34;100.00
4398;BME280;2213;49.720;7.296;2024-02-15T09:56:32;98245.41;;;11.35;100.00
4398;BME280;2213;49.720;7.296;2024-02-15T09:59:02;98253.53;;;11.40;100.00
4398;BME280;2213;49.720;7.296;2024-02-15T10:01:32;98250.09;;;11.40;100.00
4398;BME280;2213;49.720;7.296;2024-02-15T10:04:05;98257.78;;;11.41;100.00
4398;BME280;2213;49.720;7.296;2024-02-15T10:06:35;98258.00;;;11.46;100.00
4398;BME280;2213;49.720;7.296;2024-02-15T10:09:27;98255.22;;;11.48;100.00
4398;BME280;2213;49.720;7.296;2024-02-15T10:11:57;98253.66;;;11.53;100.00
4398;BME280;2213;49.720;7.296;2024-02-15T10:14:28;98247.59;;;11.53;100.00
4398;BME280;2213;49.720;7.296;2024-02-15T10:17:05;98245.78;;;11.53;100.00
4398;BME280;2213;49.720;7.296;2024-02-15T10:19:34;98248.03;;;11.56;100.00
4398;BME280;2213;49.720;7.296;2024-02-15T10:22:07;98249.84;;;11.56;100.00
4398;BME280;2213;49.720;7.296;2024-02-15T10:24:37;98247.66;;;11.59;100.00
4398;BME280;2213;49.720;7.296;2024-02-15T10:27:07;98244.84;;;11.61;100.00
4398;BME280;2213;49.720;7.296;2024-02-15T10:29:37;98243.66;;;11.63;100.00
4398;BME280;2213;49.720;7.296;2024-02-15T10:32:07;98238.41;;;11.63;100.00
4398;BME280;2213;49.720;7.296;2024-02-15T10:34:44;98238.69;;;11.69;100.00
4398;BME280;2213;49.720;7.296;2024-02-15T10:37:14;98227.84;;;11.72;100.00
4398;BME280;2213;49.720;7.296;2024-02-15T10:39:45;98221.22;;;11.76;100.00
4398;BME280;2213;49.720;7.296;2024-02-15T10:42:16;98213.97;;;11.78;100.00
4398;BME280;2213;49.720;7.296;2024-02-15T10:44:47;98214.63;;;11.80;100.00
4398;BME280;2213;49.720;7.296;2024-02-15T10:47:18;98205.94;;;11.79;100.00
4398;BME280;2213;49.720;7.296;2024-02-15T10:49:47;98204.56;;;11.83;100.00
4398;BME280;2213;49.720;7.296;2024-02-15T10:52:18;98205.78;;;11.87;100.00
4398;BME280;2213;49.720;7.296;2024-02-15T10:54:53;98203.59;;;11.91;100.00
4398;BME280;2213;49.720;7.296;2024-02-15T10:57:26;98204.00;;;11.94;100.00
4398;BME280;2213;49.720;7.296;2024-02-15T10:59:56;98204.44;;;11.98;100.00
4398;BME280;2213;49.720;7.296;2024-02-15T11:02:30;98204.88;;;12.01;100.00
4398;BME280;2213;49.720;7.296;2024-02-15T11:05:05;98191.59;;;12.03;100.00
4398;BME280;2213;49.720;7.296;2024-02-15T11:07:38;98199.66;;;12.08;100.00
4398;BME280;2213;49.720;7.296;2024-02-15T11:10:10;98193.69;;;12.14;100.00
4398;BME280;2213;49.720;7.296;2024-02-15T11:12:44;98191.25;;;12.19;100.00
4398;BME280;2213;49.720;7.296;2024-02-15T11:15:42;98201.38;;;12.22;100.00
4398;BME280;2213;49.720;7.296;2024-02-15T11:18:12;98206.22;;;12.25;100.00
4398;BME280;2213;49.720;7.296;2024-02-15T11:20:49;98188.50;;;12.27;100.00
4398;BME280;2213;49.720;7.296;2024-02-15T11:23:27;98189.91;;;12.30;100.00
4398;BME280;2213;49.720;7.296;2024-02-15T11:26:00;98179.84;;;12.33;100.00
4398;BME280;2213;49.720;7.296;2024-02-15T11:28:39;98185.13;;;12.40;100.00
4398;BME280;2213;49.720;7.296;2024-02-15T11:31:10;98180.28;;;12.43;100.00
4398;BME280;2213;49.720;7.296;2024-02-15T11:33:42;98186.59;;;12.49;100.00
4398;BME280;2213;49.720;7.296;2024-02-15T11:36:12;98186.78;;;12.54;100.00
4398;BME280;2213;49.720;7.296;2024-02-15T11:38:41;98177.34;;;12.59;100.00
4398;BME280;2213;49.720;7.296;2024-02-15T11:41:18;98182.00;;;12.64;100.00
4398;BME280;2213;49.720;7.296;2024-02-15T11:43:53;98178.78;;;12.69;100.00
4398;BME280;2213;49.720;7.296;2024-02-15T11:46:27;98173.78;;;12.74;100.00
4398;BME280;2213;49.720;7.296;2024-02-15T11:49:01;98167.50;;;12.75;100.00
4398;BME280;2213;49.720;7.296;2024-02-15T11:51:33;98167.72;;;12.80;100.00
4398;BME280;2213;49.720;7.296;2024-02-15T11:54:10;98159.63;;;12.81;100.00
4398;BME280;2213;49.720;7.296;2024-02-15T11:56:57;98159.66;;;12.88;100.00
4398;BME280;2213;49.720;7.296;2024-02-15T11:59:42;98152.59;;;12.95;100.00
4398;BME280;2213;49.720;7.296;2024-02-15T12:02:36;98154.22;;;12.96;100.00
4398;BME280;2213;49.720;7.296;2024-02-15T12:05:22;98155.84;;;13.03;100.00
4398;BME280;2213;49.720;7.296;2024-02-15T12:08:10;98162.09;;;13.02;100.00
4398;BME280;2213;49.720;7.296;2024-02-15T12:10:59;98158.06;;;13.06;100.00
4398;BME280;2213;49.720;7.296;2024-02-15T12:13:51;98150.03;;;13.08;100.00
4398;BME280;2213;49.720;7.296;2024-02-15T12:16:37;98148.03;;;13.17;100.00
4398;BME280;2213;49.720;7.296;2024-02-15T12:19:25;98148.84;;;13.17;100.00
4398;BME280;2213;49.720;7.296;2024-02-15T12:21:56;98152.47;;;13.23;100.00
4398;BME280;2213;49.720;7.296;2024-02-15T12:24:26;98139.75;;;13.26;100.00
4398;BME280;2213;49.720;7.296;2024-02-15T12:27:00;98146.84;;;13.32;100.00
4398;BME280;2213;49.720;7.296;2024-02-15T12:29:32;98141.78;;;13.37;100.00
4398;BME280;2213;49.720;7.296;2024-02-15T12:32:03;98138.53;;;13.42;100.00
4398;BME280;2213;49.720;7.296;2024-02-15T12:34:32;98139.53;;;13.47;100.00
4398;BME280;2213;49.720;7.296;2024-02-15T12:37:07;98134.69;;;13.51;100.00
4398;BME280;2213;49.720;7.296;2024-02-15T12:39:37;98122.19;;;13.53;100.00
4398;BME280;2213;49.720;7.296;2024-02-15T12:42:07;98122.56;;;13.56;100.00
4398;BME280;2213;49.720;7.296;2024-02-15T12:44:43;98122.16;;;13.59;100.00
4398;BME280;2213;49.720;7.296;2024-02-15T12:47:21;98118.91;;;13.64;100.00
4398;BME280;2213;49.720;7.296;2024-02-15T12:49:50;98118.53;;;13.67;100.00
4398;BME280;2213;49.720;7.296;2024-02-15T12:52:40;98122.13;;;13.73;100.00
4398;BME280;2213;49.720;7.296;2024-02-15T12:55:13;98108.41;;;13.77;100.00
4398;BME280;2213;49.720;7.296;2024-02-15T12:57:43;98113.00;;;13.82;100.00
4398;BME280;2213;49.720;7.296;2024-02-15T13:00:19;98110.00;;;13.85;100.00
4398;BME280;2213;49.720;7.296;2024-02-15T13:02:50;98112.22;;;13.88;100.00
4398;BME280;2213;49.720;7.296;2024-02-15T13:05:20;98111.19;;;13.89;100.00
4398;BME280;2213;49.720;7.296;2024-02-15T13:07:51;98105.50;;;13.92;100.00
4398;BME280;2213;49.720;7.296;2024-02-15T13:10:22;98103.50;;;13.94;100.00
4398;BME280;2213;49.720;7.296;2024-02-15T13:12:53;98092.75;;;13.95;100.00
4398;BME280;2213;49.720;7.296;2024-02-15T13:15:24;98096.81;;;13.98;100.00
4398;BME280;2213;49.720;7.296;2024-02-15T13:18:00;98082.25;;;14.02;100.00
4398;BME280;2213;49.720;7.296;2024-02-15T13:20:32;98088.69;;;14.06;100.00
4398;BME280;2213;49.720;7.296;2024-02-15T13:23:04;98090.28;;;14.07;100.00
4398;BME280;2213;49.720;7.296;2024-02-15T13:25:38;98083.81;;;14.09;100.00
4398;BME280;2213;49.720;7.296;2024-02-15T13:28:08;98080.38;;;14.16;100.00
4398;BME280;2213;49.720;7.296;2024-02-15T13:30:39;98075.69;;;14.18;100.00
4398;BME280;2213;49.720;7.296;2024-02-15T13:33:08;98076.69;;;14.17;100.00
4398;BME280;2213;49.720;7.296;2024-02-15T13:35:37;98081.97;;;14.17;100.00